Time;durP1;ratioP1;P1;durP2;ratioP2;P2;SDS_P1;SDS_P2;PMS_P1;PMS_P2;Temp;Humidity;BMP_temperature;BMP_pressure;BME280_temperature;BME280_humidity;BME280_pressure;Samples;Min_cycle;Max_cycle;Signal;HPM_P1;HPM_P2
2022/08/23 00:02:09;;;;;;;12.07;6.15;;;;;;;25.70;49.57;101476.66;5004381;28;20426;-73
2022/08/23 00:04:41;;;;;;;13.43;7.13;;;;;;;25.66;49.89;101483.91;5012416;28;20385;-73
2022/08/23 00:07:11;;;;;;;12.00;6.07;;;;;;;25.56;50.09;101479.44;5012418;28;20113;-74
2022/08/23 00:09:37;;;;;;;11.80;6.53;;;;;;;25.65;49.80;101476.78;5011972;28;20045;-74
2022/08/23 00:12:08;;;;;;;12.85;6.60;;;;;;;25.49;50.15;101472.75;5011995;28;20042;-73
2022/08/23 00:14:36;;;;;;;13.25;7.10;;;;;;;25.45;50.57;101471.72;5012022;28;20080;-74
2022/08/23 00:17:04;;;;;;;12.75;6.60;;;;;;;25.36;50.84;101471.59;5011729;28;20062;-74
2022/08/23 00:19:30;;;;;;;16.75;7.53;;;;;;;25.44;50.50;101468.16;5012072;28;20080;-74
2022/08/23 00:21:55;;;;;;;14.00;6.78;;;;;;;25.38;50.53;101466.59;5012655;28;20425;-74
2022/08/23 00:24:23;;;;;;;17.25;7.45;;;;;;;25.50;50.15;101469.69;5011895;28;20046;-74
2022/08/23 00:26:51;;;;;;;14.48;7.50;;;;;;;25.31;50.75;101468.16;4994233;28;20041;-73
2022/08/23 00:29:18;;;;;;;16.90;8.23;;;;;;;25.46;50.46;101459.59;5011836;28;20046;-73
2022/08/23 00:31:44;;;;;;;13.57;7.10;;;;;;;25.35;50.75;101467.25;5011776;28;20034;-74
2022/08/23 00:34:10;;;;;;;11.32;7.68;;;;;;;25.26;50.91;101469.88;5012669;28;20632;-74
2022/08/23 00:36:35;;;;;;;15.43;8.73;;;;;;;25.33;50.89;101463.16;5011698;28;20030;-74
2022/08/23 00:39:02;;;;;;;11.88;7.57;;;;;;;25.26;50.77;101463.56;5011888;28;20053;-73
2022/08/23 00:41:28;;;;;;;12.00;8.02;;;;;;;25.33;51.08;101465.91;5011716;28;20073;-74
2022/08/23 00:49:31;;;;;;;17.20;7.85;;;;;;;25.14;51.03;101464.09;5011776;28;20462;-74
2022/08/23 00:52:00;;;;;;;13.80;8.30;;;;;;;25.14;51.37;101455.00;4994343;28;20053;-75
2022/08/23 00:54:28;;;;;;;16.85;7.93;;;;;;;25.10;51.57;101451.28;5000100;28;20550;-74
2022/08/23 00:56:57;;;;;;;15.93;8.20;;;;;;;25.01;51.80;101453.94;4992009;28;20108;-75
2022/08/23 00:59:23;;;;;;;15.52;8.27;;;;;;;24.96;51.75;101456.75;5011495;28;20553;-73
2022/08/23 01:01:49;;;;;;;14.57;8.38;;;;;;;25.09;51.47;101455.97;5011591;28;20382;-67
2022/08/23 01:04:16;;;;;;;16.02;8.40;;;;;;;24.89;51.98;101455.53;4994247;28;20168;-66
2022/08/23 01:07:01;;;;;;;15.88;8.95;;;;;;;24.99;51.65;101458.91;5010769;28;20037;-66
2022/08/23 01:09:26;;;;;;;17.92;8.48;;;;;;;24.93;52.13;101457.38;5010519;28;20048;-67
2022/08/23 01:12:01;;;;;;;15.93;8.15;;;;;;;24.85;52.12;101451.78;5010677;28;20030;-66
2022/08/23 01:14:39;;;;;;;17.10;8.88;;;;;;;24.84;52.24;101461.16;5010794;28;20121;-68
2022/08/23 01:17:16;;;;;;;15.65;8.65;;;;;;;24.89;51.92;101455.53;5011079;28;20034;-66
2022/08/23 01:19:56;;;;;;;19.95;9.13;;;;;;;24.86;52.21;101464.41;5011417;28;20514;-67
2022/08/23 01:22:37;;;;;;;17.50;10.33;;;;;;;24.96;51.89;101462.25;5014768;28;20050;-66
2022/08/23 01:25:09;;;;;;;15.00;8.70;;;;;;;24.95;52.12;101460.66;5015109;28;20390;-68
2022/08/23 01:27:36;;;;;;;15.60;9.23;;;;;;;24.86;52.57;101462.50;5014627;28;20052;-66
2022/08/23 01:30:05;;;;;;;14.70;9.40;;;;;;;24.80;52.58;101466.47;5014947;28;20109;-67
2022/08/23 01:32:32;;;;;;;13.65;8.70;;;;;;;24.82;52.27;101466.16;5014828;28;20125;-67
2022/08/23 01:34:57;;;;;;;10.55;8.70;;;;;;;24.78;52.71;101474.19;5014595;28;20046;-66
2022/08/23 01:37:22;;;;;;;13.23;8.82;;;;;;;24.81;52.00;101468.06;5014296;28;20045;-66
2022/08/23 01:39:48;;;;;;;17.45;8.45;;;;;;;24.89;52.29;101470.13;5014812;28;20088;-68
2022/08/23 01:42:13;;;;;;;17.13;9.20;;;;;;;24.93;52.31;101462.06;5014177;28;20042;-68
2022/08/23 01:44:39;;;;;;;16.27;8.82;;;;;;;24.84;52.50;101459.22;5014107;28;20371;-67
2022/08/23 01:47:05;;;;;;;18.55;9.40;;;;;;;24.82;52.65;101461.47;5013973;28;20037;-66
2022/08/23 01:49:33;;;;;;;12.43;8.63;;;;;;;24.97;52.13;101463.09;5012212;28;20054;-67
2022/08/23 01:51:59;;;;;;;19.40;8.82;;;;;;;24.96;52.46;101461.47;4995269;28;20065;-66
2022/08/23 01:54:24;;;;;;;14.07;8.73;;;;;;;24.97;52.47;101458.41;5004271;28;20505;-66
2022/08/23 01:56:49;;;;;;;14.30;9.57;;;;;;;25.16;51.88;101464.59;5014192;28;20041;-67
2022/08/23 01:59:15;;;;;;;16.05;9.88;;;;;;;25.15;51.92;101465.75;5013806;28;20050;-68
2022/08/23 02:01:40;;;;;;;13.70;9.27;;;;;;;25.07;52.24;101458.19;5013970;28;20038;-66
2022/08/23 02:04:06;;;;;;;22.80;9.80;;;;;;;25.04;52.62;101458.78;5014141;28;20041;-67
2022/08/23 02:06:32;;;;;;;14.95;9.63;;;;;;;25.06;52.58;101467.56;5013887;28;20045;-66
2022/08/23 02:09:00;;;;;;;18.88;9.38;;;;;;;25.14;52.40;101463.25;4996113;28;20030;-67
2022/08/23 02:11:30;;;;;;;14.38;10.02;;;;;;;25.19;52.21;101468.69;5013801;28;20042;-66
2022/08/23 02:13:57;;;;;;;15.57;9.75;;;;;;;25.16;52.40;101466.53;5012317;28;20371;-67
2022/08/23 02:16:27;;;;;;;15.40;9.07;;;;;;;25.19;52.16;101475.00;5013596;28;20041;-66
2022/08/23 02:18:53;;;;;;;16.48;9.13;;;;;;;25.30;52.14;101467.34;5013991;28;20034;-67
2022/08/23 02:21:19;;;;;;;14.05;9.68;;;;;;;25.31;52.04;101471.72;5013545;28;20050;-67
2022/08/23 02:23:46;;;;;;;12.48;8.68;;;;;;;25.23;51.98;101473.28;5013640;28;20034;-68
2022/08/23 02:26:11;;;;;;;12.07;8.60;;;;;;;25.32;52.14;101470.59;5013466;28;20052;-68
2022/08/23 02:28:37;;;;;;;16.50;9.00;;;;;;;25.34;51.86;101470.28;5013312;28;20038;-67
2022/08/23 02:31:02;;;;;;;13.18;9.48;;;;;;;25.37;51.77;101464.16;5013570;28;20029;-67
2022/08/23 02:33:28;;;;;;;17.75;9.07;;;;;;;25.37;51.70;101462.25;5012508;28;20386;-67
2022/08/23 02:35:53;;;;;;;15.80;8.82;;;;;;;25.39;51.53;101448.16;5013440;28;20049;-67
2022/08/23 02:38:19;;;;;;;12.98;9.73;;;;;;;25.40;51.91;101456.13;5013401;28;20041;-67
2022/08/23 02:40:45;;;;;;;15.10;9.13;;;;;;;25.32;51.88;101467.84;5013153;28;20104;-68
2022/08/23 02:43:11;;;;;;;16.30;9.52;;;;;;;25.28;51.76;101459.41;5013744;28;20463;-66
2022/08/23 02:45:37;;;;;;;18.13;9.52;;;;;;;25.30;52.21;101455.53;5012964;28;20040;-66
2022/08/23 02:48:03;;;;;;;19.20;9.55;;;;;;;25.43;51.61;101454.72;5013175;28;20034;-67
2022/08/23 02:50:29;;;;;;;15.13;9.00;;;;;;;25.49;51.38;101454.31;5012953;28;20068;-67
2022/08/23 02:52:56;;;;;;;14.38;9.73;;;;;;;25.32;51.98;101458.78;5013014;28;20089;-67
2022/08/23 02:55:21;;;;;;;14.38;9.82;;;;;;;25.55;51.38;101455.78;5012992;28;20056;-66
2022/08/23 02:57:47;;;;;;;16.95;8.77;;;;;;;25.47;51.37;101453.78;5013340;28;20042;-67
2022/08/23 03:00:15;;;;;;;11.02;8.75;;;;;;;25.35;51.56;101456.22;5012738;28;20100;-67
2022/08/23 03:02:41;;;;;;;17.75;9.68;;;;;;;25.30;51.65;101459.06;5012607;28;20050;-65
2022/08/23 03:05:08;;;;;;;16.73;9.30;;;;;;;25.42;51.40;101459.41;5012795;28;20473;-67
2022/08/23 03:07:34;;;;;;;11.90;9.20;;;;;;;25.39;51.85;101457.25;5012911;28;20028;-67
2022/08/23 03:09:59;;;;;;;13.95;8.35;;;;;;;25.50;51.02;101458.66;5013491;28;20117;-66
2022/08/23 03:12:25;;;;;;;14.05;8.63;;;;;;;25.49;51.15;101454.31;5012716;28;20084;-68
2022/08/23 03:14:51;;;;;;;15.30;8.80;;;;;;;25.45;51.09;101456.03;5012610;28;20045;-67
2022/08/23 03:17:17;;;;;;;12.98;8.80;;;;;;;25.39;51.22;101460.00;5012338;28;20069;-66
2022/08/23 03:19:42;;;;;;;14.68;8.07;;;;;;;25.48;50.80;101458.16;4994520;28;20036;-68
2022/08/23 03:22:08;;;;;;;17.25;8.95;;;;;;;25.58;50.49;101466.19;5012983;28;20073;-65
2022/08/23 03:24:34;;;;;;;11.85;8.80;;;;;;;25.50;50.31;101466.09;5012511;28;20411;-66
2022/08/23 03:26:59;;;;;;;20.52;9.27;;;;;;;25.31;50.84;101465.41;4992929;28;20383;-68
2022/08/23 03:29:24;;;;;;;17.05;8.75;;;;;;;25.34;51.14;101457.34;4992773;28;20610;-65
2022/08/23 03:31:50;;;;;;;15.68;10.20;;;;;;;25.43;50.80;101466.53;4992793;28;20049;-66
2022/08/23 03:34:15;;;;;;;14.35;8.98;;;;;;;25.50;50.63;101466.09;4993174;28;20022;-67
2022/08/23 03:36:41;;;;;;;15.40;8.80;;;;;;;25.38;50.77;101461.09;4992666;28;20420;-67
2022/08/23 03:39:06;;;;;;;14.77;8.15;;;;;;;25.51;50.70;101467.75;4992449;28;20046;-67
2022/08/23 03:41:32;;;;;;;14.90;7.53;;;;;;;25.49;50.72;101461.72;4992589;28;20070;-67
2022/08/23 03:43:58;;;;;;;13.68;8.85;;;;;;;25.49;50.70;101464.50;4991993;28;20491;-66
2022/08/23 03:46:23;;;;;;;14.85;8.48;;;;;;;25.48;50.71;101473.84;4992471;28;20030;-67
2022/08/23 03:48:51;;;;;;;12.85;9.15;;;;;;;25.60;50.37;101474.13;4992884;28;20077;-67
2022/08/23 03:51:17;;;;;;;19.83;9.50;;;;;;;25.61;50.17;101475.78;4992325;28;20065;-67
2022/08/23 03:53:45;;;;;;;15.68;9.38;;;;;;;25.53;50.49;101480.09;4992490;28;20514;-67
2022/08/23 03:56:19;;;;;;;12.65;9.20;;;;;;;25.53;50.47;101473.75;4992494;28;20344;-68
2022/08/23 03:58:44;;;;;;;12.27;8.60;;;;;;;25.40;50.67;101471.81;4992324;28;20073;-67
2022/08/23 04:01:10;;;;;;;13.52;8.75;;;;;;;25.53;50.68;101471.81;4991035;28;20034;-66
2022/08/23 04:03:35;;;;;;;18.42;8.90;;;;;;;25.51;50.74;101470.50;4991683;28;20036;-68
2022/08/23 04:06:01;;;;;;;13.90;8.98;;;;;;;25.48;50.53;101477.44;4991747;28;20223;-66
2022/08/23 04:08:27;;;;;;;11.50;8.77;;;;;;;25.42;50.82;101486.09;4991796;28;20039;-67
2022/08/23 04:10:52;;;;;;;14.73;8.65;;;;;;;25.35;50.97;101482.94;4992005;28;20035;-67
2022/08/23 04:13:17;;;;;;;14.98;8.65;;;;;;;25.34;51.10;101482.09;4992342;28;20487;-74
2022/08/23 04:15:43;;;;;;;24.15;9.00;;;;;;;25.40;50.47;101483.66;4976560;28;20046;-74
2022/08/23 04:18:08;;;;;;;14.20;9.05;;;;;;;25.39;50.56;101486.69;4992212;28;20070;-73
2022/08/23 04:20:34;;;;;;;13.45;9.07;;;;;;;25.28;50.76;101486.09;4992105;28;20157;-75
2022/08/23 04:22:59;;;;;;;14.30;8.77;;;;;;;25.11;51.13;101475.72;4992195;28;20042;-75
2022/08/23 04:25:25;;;;;;;15.68;9.10;;;;;;;25.06;51.46;101486.81;4992071;28;20050;-74
2022/08/23 04:27:50;;;;;;;11.52;9.30;;;;;;;25.05;51.46;101485.19;4992665;28;20053;-74
2022/08/23 04:30:18;;;;;;;14.25;8.88;;;;;;;24.95;51.64;101484.56;4992027;28;20034;-74
2022/08/23 04:32:44;;;;;;;14.07;9.60;;;;;;;24.97;51.37;101479.59;4992041;28;20164;-74
2022/08/23 04:35:10;;;;;;;15.30;10.02;;;;;;;24.88;52.04;101489.69;4991734;28;20475;-73
2022/08/23 04:37:36;;;;;;;15.15;9.63;;;;;;;24.88;51.66;101492.44;4992178;28;20030;-74
2022/08/23 04:42:47;;;;;;;16.92;10.05;;;;;;;24.75;52.16;101491.28;4998727;28;20048;-73
2022/08/23 04:45:13;;;;;;;20.00;9.43;;;;;;;24.79;51.81;101494.22;5011308;28;20038;-74
2022/08/23 04:47:40;;;;;;;13.85;9.63;;;;;;;24.81;52.14;101489.25;5011727;28;20040;-66
2022/08/23 04:50:06;;;;;;;19.45;11.10;;;;;;;24.75;52.31;101495.97;5011292;28;20038;-68
2022/08/23 04:52:32;;;;;;;16.13;11.02;;;;;;;24.78;51.94;101501.69;5011696;28;20121;-67
2022/08/23 04:54:57;;;;;;;19.67;11.15;;;;;;;24.74;52.01;101495.16;5012240;28;20109;-67
2022/08/23 04:57:24;;;;;;;16.25;10.80;;;;;;;24.72;52.26;101496.53;5015246;28;20042;-67
2022/08/23 04:59:49;;;;;;;12.85;9.73;;;;;;;24.70;52.36;101499.59;5014995;28;20080;-67
2022/08/23 05:02:15;;;;;;;13.38;10.30;;;;;;;24.68;52.47;101504.59;5014902;28;20042;-67
2022/08/23 05:04:40;;;;;;;13.65;9.98;;;;;;;24.69;52.36;101513.63;5015054;28;20030;-66
2022/08/23 05:07:06;;;;;;;15.10;10.35;;;;;;;24.69;52.15;101508.97;5015354;28;20037;-67
2022/08/23 05:09:32;;;;;;;15.15;9.90;;;;;;;24.65;52.49;101507.94;5014984;28;20038;-68
2022/08/23 05:11:57;;;;;;;16.27;10.45;;;;;;;24.62;52.64;101508.56;5013830;28;20037;-67
2022/08/23 05:14:23;;;;;;;17.08;10.10;;;;;;;24.61;52.44;101515.16;5022831;28;20040;-65
2022/08/23 05:16:48;;;;;;;21.17;12.70;;;;;;;24.61;52.92;101515.16;5023964;28;20553;-68
2022/08/23 05:19:14;;;;;;;16.33;11.75;;;;;;;24.66;52.24;101522.50;5025305;28;20478;-67
2022/08/23 05:21:39;;;;;;;15.10;11.35;;;;;;;24.59;53.01;101528.38;5024787;28;20405;-66
2022/08/23 05:24:05;;;;;;;14.60;10.82;;;;;;;24.68;52.93;101523.00;5023175;28;20092;-74
2022/08/23 05:26:30;;;;;;;15.18;11.23;;;;;;;24.66;52.78;101528.00;5023579;28;20033;-73
2022/08/23 05:28:56;;;;;;;18.48;11.77;;;;;;;24.74;52.58;101527.34;5024751;28;20034;-74
2022/08/23 05:31:26;;;;;;;20.55;12.20;;;;;;;24.75;52.33;101527.03;5010228;28;20581;-73
2022/08/23 05:33:52;;;;;;;16.48;12.80;;;;;;;24.56;53.53;101528.16;5019149;28;20037;-75
2022/08/23 05:36:18;;;;;;;14.48;12.52;;;;;;;24.66;52.88;101534.31;5015792;28;20030;-73
2022/08/23 05:38:48;;;;;;;18.55;12.65;;;;;;;24.81;52.71;101534.06;5014328;28;20037;-74
2022/08/23 05:41:15;;;;;;;19.23;12.73;;;;;;;24.76;52.96;101544.34;5013190;28;20065;-75
2022/08/23 05:43:40;;;;;;;15.05;12.30;;;;;;;24.75;52.89;101538.03;5013223;28;20495;-75
2022/08/23 05:46:13;;;;;;;19.65;13.63;;;;;;;24.53;53.59;101535.06;5017294;28;20120;-74
2022/08/23 05:48:40;;;;;;;18.80;13.20;;;;;;;24.53;53.52;101543.31;5015630;28;20037;-76
2022/08/23 05:51:18;;;;;;;21.52;14.48;;;;;;;24.66;53.33;101545.31;5021863;28;20100;-74
2022/08/23 05:53:45;;;;;;;18.27;14.38;;;;;;;24.83;52.92;101553.00;5018624;28;20041;-75
2022/08/23 05:56:16;;;;;;;17.55;13.07;;;;;;;24.82;52.91;101551.38;5024752;28;20057;-74
2022/08/23 05:58:43;;;;;;;26.67;14.82;;;;;;;24.94;52.55;101555.25;5035081;28;20349;-75
2022/08/23 06:01:10;;;;;;;18.48;13.35;;;;;;;25.09;52.11;101557.75;5034933;28;20088;-75
2022/08/23 06:03:36;;;;;;;19.88;13.20;;;;;;;25.20;51.55;101556.41;5020618;28;20045;-74
2022/08/23 06:06:03;;;;;;;18.17;13.60;;;;;;;25.24;51.77;101556.59;5019945;28;20037;-74
2022/08/23 06:08:28;;;;;;;28.92;15.27;;;;;;;25.31;51.42;101561.72;5028753;28;20052;-76
2022/08/23 06:11:02;;;;;;;25.90;13.50;;;;;;;25.44;51.30;101558.16;5033999;28;20037;-75
2022/08/23 06:13:27;;;;;;;18.42;12.95;;;;;;;25.61;50.70;101561.91;5020756;28;20104;-75
2022/08/23 06:15:53;;;;;;;24.52;14.55;;;;;;;25.43;50.88;101562.88;5013543;28;20033;-73
2022/08/23 06:18:19;;;;;;;16.95;13.05;;;;;;;25.48;50.82;101565.50;4982086;28;20034;-75
2022/08/23 06:20:45;;;;;;;17.17;12.75;;;;;;;25.56;50.50;101567.53;5017525;28;20390;-74
2022/08/23 06:23:10;;;;;;;18.27;13.05;;;;;;;25.69;49.91;101563.16;5027993;28;20049;-74
2022/08/23 06:25:37;;;;;;;21.45;13.55;;;;;;;25.83;49.72;101572.19;5027811;28;20057;-74
2022/08/23 06:28:03;;;;;;;18.17;13.27;;;;;;;25.97;48.90;101573.78;5034290;28;20021;-74
2022/08/23 06:30:28;;;;;;;20.20;14.63;;;;;;;26.00;49.12;101577.88;5033388;28;20540;-75
2022/08/23 06:32:53;;;;;;;16.80;13.30;;;;;;;26.10;48.69;101575.72;4994345;28;20042;-76
2022/08/23 06:35:19;;;;;;;20.33;13.57;;;;;;;26.12;48.44;101569.09;5003135;28;20033;-75
2022/08/23 06:37:44;;;;;;;19.05;13.02;;;;;;;26.26;48.55;101575.38;5021428;28;20470;-74
2022/08/23 06:40:10;;;;;;;24.60;13.32;;;;;;;26.32;47.82;101574.13;5006619;28;20041;-74
2022/08/23 06:42:35;;;;;;;20.08;13.07;;;;;;;26.50;47.41;101578.63;5022284;28;20375;-75
2022/08/23 06:45:01;;;;;;;18.52;13.52;;;;;;;26.45;48.03;101582.31;4993813;28;20046;-72
2022/08/23 06:47:27;;;;;;;17.13;11.82;;;;;;;26.61;47.17;101580.00;5007114;28;20038;-74
2022/08/23 06:49:53;;;;;;;18.55;12.30;;;;;;;26.60;46.85;101587.47;5020367;28;20040;-73
2022/08/23 06:52:19;;;;;;;16.00;12.18;;;;;;;26.70;46.56;101576.19;5016996;28;20493;-74
2022/08/23 06:54:46;;;;;;;20.00;11.85;;;;;;;26.65;46.16;101581.00;5016186;28;20049;-74
2022/08/23 06:57:12;;;;;;;18.63;11.77;;;;;;;26.66;46.22;101572.41;5019897;28;20068;-75
2022/08/23 06:59:37;;;;;;;20.48;11.68;;;;;;;26.89;45.75;101571.28;5022313;28;20036;-67
2022/08/23 07:02:06;;;;;;;17.30;11.20;;;;;;;27.02;46.18;101580.59;5022892;28;20049;-67
2022/08/23 07:04:37;;;;;;;15.05;12.75;;;;;;;26.94;45.86;101578.63;5023143;28;20072;-68
2022/08/23 07:07:03;;;;;;;15.90;11.68;;;;;;;27.15;45.98;101576.09;5023944;28;20081;-66
2022/08/23 07:09:30;;;;;;;14.60;11.95;;;;;;;27.15;46.17;101579.69;5020656;28;20025;-67
2022/08/23 07:11:56;;;;;;;14.43;10.27;;;;;;;27.23;45.54;101576.16;5022002;28;20041;-67
2022/08/23 07:14:23;;;;;;;16.80;11.18;;;;;;;27.25;45.41;101576.63;5021188;28;20375;-67
2022/08/23 07:16:52;;;;;;;12.30;10.45;;;;;;;27.32;45.19;101576.19;5019283;28;20483;-67
2022/08/23 07:19:20;;;;;;;17.38;11.52;;;;;;;27.43;44.90;101572.03;5021272;28;20030;-67
2022/08/23 07:21:47;;;;;;;20.50;13.18;;;;;;;27.49;45.06;101579.03;5023059;28;20046;-67
2022/08/23 07:24:13;;;;;;;14.73;10.75;;;;;;;27.66;44.81;101579.06;5021512;28;20089;-67
2022/08/23 07:26:40;;;;;;;19.50;10.98;;;;;;;27.57;45.11;101589.28;5021375;28;20039;-67
2022/08/23 07:29:07;;;;;;;16.98;11.27;;;;;;;27.17;45.93;101588.47;5018134;28;20116;-68
2022/08/23 07:31:37;;;;;;;17.85;10.63;;;;;;;27.49;45.18;101590.91;5023029;28;20038;-65
2022/08/23 07:34:04;;;;;;;16.50;12.07;;;;;;;27.66;44.86;101584.59;5021301;28;20018;-66
2022/08/23 07:36:32;;;;;;;19.95;11.98;;;;;;;27.16;45.64;101589.59;5022320;28;20040;-66
2022/08/23 07:38:58;;;;;;;19.42;11.93;;;;;;;27.44;45.58;101588.25;5022068;28;20110;-67
2022/08/23 07:41:28;;;;;;;20.75;12.10;;;;;;;27.46;45.46;101585.19;5020267;28;20472;-65
2022/08/23 07:43:54;;;;;;;19.42;12.10;;;;;;;27.58;45.19;101588.13;5022675;28;20030;-74
2022/08/23 07:46:20;;;;;;;16.55;12.77;;;;;;;27.74;45.12;101583.78;5023046;28;20153;-74
2022/08/23 07:48:45;;;;;;;13.93;12.02;;;;;;;27.83;44.83;101595.69;5022953;28;20585;-75
2022/08/23 07:51:13;;;;;;;21.83;12.55;;;;;;;27.70;44.49;101597.44;5021943;28;20034;-75
2022/08/23 07:53:39;;;;;;;17.10;12.18;;;;;;;27.85;44.75;101600.88;4989412;28;21080;-75
2022/08/23 07:56:07;;;;;;;17.75;12.80;;;;;;;28.11;44.70;101602.56;5014355;28;20041;-75
2022/08/23 07:58:33;;;;;;;17.08;11.88;;;;;;;28.14;44.29;101610.22;5000131;28;20026;-76
2022/08/23 08:01:20;;;;;;;13.75;12.18;;;;;;;28.30;44.39;101608.63;5018339;28;20124;-75
2022/08/23 08:03:49;;;;;;;16.20;11.85;;;;;;;28.43;43.90;101601.28;5016877;28;20045;-75
2022/08/23 08:06:20;;;;;;;24.45;12.05;;;;;;;28.57;43.91;101611.06;5020698;28;20041;-75
2022/08/23 08:08:47;;;;;;;15.35;11.18;;;;;;;28.61;44.01;101611.22;5016297;28;20041;-75
2022/08/23 08:11:15;;;;;;;15.07;10.82;;;;;;;28.66;43.86;101613.00;5019946;28;20042;-75
2022/08/23 08:13:42;;;;;;;13.35;10.88;;;;;;;28.59;43.81;101616.25;5015630;28;20494;-76
2022/08/23 08:16:08;;;;;;;15.07;11.50;;;;;;;28.76;43.13;101615.41;5018641;28;20037;-74
2022/08/23 08:18:35;;;;;;;15.80;12.20;;;;;;;28.58;43.03;101615.44;5019444;28;20328;-74
2022/08/23 08:21:00;;;;;;;16.30;11.10;;;;;;;28.87;42.98;101625.00;5017512;28;20044;-73
2022/08/23 08:23:28;;;;;;;13.77;10.73;;;;;;;28.68;42.73;101621.78;5015853;28;20035;-78
2022/08/23 08:26:04;;;;;;;14.32;11.65;;;;;;;28.69;43.01;101620.63;5017735;28;20045;-75
2022/08/23 08:28:30;;;;;;;15.88;11.52;;;;;;;28.96;42.42;101628.56;5017559;28;20430;-73
2022/08/23 08:30:56;;;;;;;15.60;12.00;;;;;;;28.90;41.95;101632.63;5021455;28;20022;-75
2022/08/23 08:33:22;;;;;;;16.77;11.95;;;;;;;29.10;42.16;101621.69;5023884;28;20030;-75
2022/08/23 08:35:48;;;;;;;20.73;11.65;;;;;;;29.34;41.79;101621.97;5024789;28;20037;-75
2022/08/23 08:38:13;;;;;;;15.68;11.38;;;;;;;29.49;42.08;101631.66;5026864;28;20037;-75
2022/08/23 08:40:39;;;;;;;13.27;11.45;;;;;;;29.41;41.42;101630.56;5022884;28;20041;-74
2022/08/23 08:43:27;;;;;;;17.00;12.38;;;;;;;29.60;41.68;101632.09;5021501;28;20085;-75
2022/08/23 08:46:11;;;;;;;15.90;12.35;;;;;;;29.66;41.01;101631.56;5019284;28;20041;-75
2022/08/23 08:48:50;;;;;;;17.15;11.13;;;;;;;29.75;40.74;101631.56;5022221;28;20040;-74
2022/08/23 08:51:47;;;;;;;15.77;11.73;;;;;;;29.25;41.37;101625.88;5021800;28;20046;-67
2022/08/23 08:54:21;;;;;;;20.42;12.32;;;;;;;29.73;40.86;101629.13;5020223;28;20050;-66
2022/08/23 08:56:52;;;;;;;15.40;11.85;;;;;;;29.74;40.40;101627.19;5020396;28;20048;-66
2022/08/23 08:59:30;;;;;;;12.85;10.73;;;;;;;29.86;39.95;101624.47;5022455;28;20087;-66
2022/08/23 09:01:57;;;;;;;16.83;10.82;;;;;;;30.01;39.41;101621.13;5021824;28;20041;-66
2022/08/23 09:04:24;;;;;;;18.02;9.82;;;;;;;30.05;39.35;101628.41;5017802;28;20101;-65
2022/08/23 09:07:02;;;;;;;15.50;10.95;;;;;;;30.21;38.69;101635.00;5022260;28;20651;-67
2022/08/23 09:10:12;;;;;;;13.90;10.18;;;;;;;30.29;38.64;101634.16;5019555;28;20623;-67
2022/08/23 09:13:02;;;;;;;13.25;10.68;;;;;;;30.37;38.98;101629.69;4922649;29;20055;-66
2022/08/23 09:15:45;;;;;;;16.70;10.52;;;;;;;30.42;38.68;101621.16;4920024;29;20115;-66
2022/08/23 09:18:15;;;;;;;20.45;11.15;;;;;;;30.47;37.78;101626.50;4921698;29;20067;-66
2022/08/23 09:20:42;;;;;;;17.02;9.55;;;;;;;30.62;37.45;101627.84;4920784;29;20602;-65
2022/08/23 09:23:15;;;;;;;13.75;8.77;;;;;;;30.70;37.27;101630.50;4921042;29;20202;-74
2022/08/23 09:25:50;;;;;;;11.15;8.82;;;;;;;30.27;37.13;101632.81;4913645;29;20044;-75
2022/08/23 09:28:16;;;;;;;20.85;9.05;;;;;;;30.62;36.25;101627.84;4916703;29;20040;-73
2022/08/23 09:30:53;;;;;;;11.88;6.47;;;;;;;30.94;35.45;101629.81;4916031;29;20040;-74
2022/08/23 09:33:23;;;;;;;15.63;7.28;;;;;;;31.14;35.14;101631.72;4916269;29;20207;-72
2022/08/23 09:36:16;;;;;;;10.27;6.25;;;;;;;31.13;35.17;101622.56;4919375;29;20513;-74
2022/08/23 09:39:25;;;;;;;11.88;7.78;;;;;;;31.13;34.76;101621.78;4920272;29;20555;-74
2022/08/23 09:41:51;;;;;;;13.90;6.97;;;;;;;31.21;33.92;101620.03;4814311;29;20050;-74
2022/08/23 09:44:33;;;;;;;19.58;7.28;;;;;;;31.01;35.43;101614.22;4815879;29;20053;-65
2022/08/23 09:47:11;;;;;;;15.15;7.18;;;;;;;31.19;35.12;101607.28;4815240;29;20566;-64
2022/08/23 09:49:38;;;;;;;11.45;7.07;;;;;;;31.26;34.56;101612.28;4877169;29;20052;-65
2022/08/23 09:52:24;;;;;;;14.68;6.57;;;;;;;31.33;34.14;101612.53;4905938;29;20518;-67
2022/08/23 09:55:05;;;;;;;8.60;5.35;;;;;;;31.94;33.75;101616.16;4908754;29;20044;-65
2022/08/23 09:57:32;;;;;;;15.32;5.40;;;;;;;31.98;32.85;101606.75;4905223;29;20051;-66
2022/08/23 10:00:22;;;;;;;11.35;5.38;;;;;;;32.12;32.51;101603.59;4905119;29;20056;-65
2022/08/23 10:02:47;;;;;;;14.48;4.50;;;;;;;32.19;31.21;101603.00;4903200;29;20192;-66
2022/08/23 10:05:26;;;;;;;8.68;4.15;;;;;;;31.85;30.66;101601.53;4896642;29;20067;-65
2022/08/23 10:08:00;;;;;;;9.48;4.85;;;;;;;31.74;31.71;101608.75;4881740;29;20174;-66
2022/08/23 10:10:45;;;;;;;8.82;4.60;;;;;;;32.10;31.33;101594.00;4900388;29;20143;-66
2022/08/23 10:13:12;;;;;;;10.68;4.20;;;;;;;32.59;30.57;101599.03;4900625;29;20029;-64
2022/08/23 10:16:00;;;;;;;8.93;3.45;;;;;;;32.81;29.35;101594.84;4902561;29;20067;-64
2022/08/23 10:19:24;;;;;;;8.35;3.20;;;;;;;33.09;29.03;101595.66;4972786;28;20046;-66
2022/08/23 10:22:16;;;;;;;18.23;3.92;;;;;;;33.38;30.28;101597.16;4969866;28;20042;-67
2022/08/23 10:24:53;;;;;;;10.00;3.88;;;;;;;33.49;28.86;101589.91;4966649;28;20554;-64
2022/08/23 10:30:28;;;;;;;7.80;2.95;;;;;;;33.85;29.15;101583.19;4967969;28;20069;-66
2022/08/23 10:33:12;;;;;;;14.48;3.53;;;;;;;33.26;28.82;101584.13;4968628;28;20030;-66
2022/08/23 10:35:48;;;;;;;8.00;2.92;;;;;;;34.11;27.45;101584.19;4968244;28;20074;-73
2022/08/23 10:38:41;;;;;;;10.02;3.75;;;;;;;34.14;27.87;101577.06;4949328;28;20163;-73
2022/08/23 10:41:25;;;;;;;9.40;3.15;;;;;;;34.36;27.28;101577.13;4964605;28;20054;-72
2022/08/23 10:44:04;;;;;;;18.27;4.45;;;;;;;34.35;27.90;101575.53;4970407;28;20070;-74
2022/08/23 10:46:35;;;;;;;9.15;3.35;;;;;;;33.96;27.15;101581.44;4975616;28;20045;-75
2022/08/23 10:49:01;;;;;;;5.93;2.78;;;;;;;34.03;27.57;101576.03;4977275;28;20432;-75
2022/08/23 10:51:33;;;;;;;9.82;2.65;;;;;;;34.17;26.89;101579.13;4991822;28;20057;-74
2022/08/23 10:54:33;;;;;;;5.45;2.03;;;;;;;34.18;25.97;101572.38;5025822;28;20064;-75
2022/08/23 10:57:01;;;;;;;6.38;2.45;;;;;;;34.53;26.10;101570.31;5026874;28;20382;-73
2022/08/23 10:59:29;;;;;;;6.15;2.60;;;;;;;34.56;26.03;101571.56;5027259;28;20041;-74
2022/08/23 11:02:06;;;;;;;7.20;2.40;;;;;;;34.76;25.04;101567.56;5008930;28;20037;-74
2022/08/23 11:04:43;;;;;;;4.72;2.03;;;;;;;35.11;25.41;101571.81;5026768;28;20101;-75
2022/08/23 11:07:41;;;;;;;11.25;2.58;;;;;;;35.33;24.25;101567.38;5027351;28;20018;-74
2022/08/23 11:10:15;;;;;;;4.72;1.83;;;;;;;35.60;25.07;101574.63;4945535;28;20145;-74
2022/08/23 11:12:57;;;;;;;5.30;2.00;;;;;;;35.67;23.88;101568.34;4933379;28;20068;-73
2022/08/23 11:15:42;;;;;;;6.60;2.30;;;;;;;35.88;24.48;101569.44;5038125;27;1260899;-73
2022/08/23 11:18:29;;;;;;;6.47;2.53;;;;;;;35.80;24.02;101562.13;5045752;28;20043;-74
2022/08/23 11:20:59;;;;;;;6.57;2.60;;;;;;;36.08;23.78;101565.34;5001082;28;20515;-71
2022/08/23 11:23:47;;;;;;;7.05;2.50;;;;;;;35.61;23.88;101559.47;5009126;28;20498;-72
2022/08/23 11:26:22;;;;;;;9.18;2.13;;;;;;;35.95;23.39;101563.16;5009618;28;20036;-72
2022/08/23 11:28:49;;;;;;;6.03;1.88;;;;;;;35.65;24.14;101567.91;5015506;28;20470;-71
2022/08/23 11:31:15;;;;;;;6.43;2.17;;;;;;;35.93;24.08;101571.13;5019514;28;20076;-73
2022/08/23 11:34:18;;;;;;;7.70;2.00;;;;;;;36.36;23.67;101562.09;5013313;28;20740;-72
2022/08/23 11:37:18;;;;;;;13.38;2.67;;;;;;;36.32;23.45;101557.63;4938600;29;20134;-72
2022/08/23 11:40:07;;;;;;;8.95;2.50;;;;;;;36.55;23.23;101561.91;4938242;29;20130;-71